Avondale, Alabama
Current Conditions -  °F | °C
As of 12:53 PM on Saturday 25 Oct 2014 (Local Time) from KBHM Reporting Station
Clear Clear  
Wind Chill: 73°   Ceiling: Unl
Heat Index: 73°   Visibility: 10mi
Dew Point: 51°   Wind: 9mph
Humidity: 46%   Direction: 320°NW
Pressure: 30.11"   Gusts: NA
Location:  33.5222°N, 86.7699°W
Report Text: KBHM 251753Z 32008KT 10SM CLR 23/11 A3011 RMK AO2 SLP190 T02280106 10228 20061 58016
Loading
Personal Weather Stations






























Interactive Weather Map New forecast layout! Learn more

10-Day Weather Forecast

Advertisements
Track Severe Weather on mobile